Time;durP1;ratioP1;P1;durP2;ratioP2;P2;SDS_P1;SDS_P2;PMS_P1;PMS_P2;Temp;Humidity;BMP_temperature;BMP_pressure;BME280_temperature;BME280_humidity;BME280_pressure;Samples;Min_cycle;Max_cycle;Signal;HPM_P1;HPM_P2
2023/01/04 00:02:12;;;;;;;3.47;1.50;;;7.10;99.90;;;;;;4948543;28;20227;-67
2023/01/04 00:04:38;;;;;;;2.90;1.57;;;7.10;99.90;;;;;;4949142;28;20227;-67
2023/01/04 00:07:05;;;;;;;5.90;2.10;;;7.10;99.90;;;;;;4933389;28;22443;-67
2023/01/04 00:09:32;;;;;;;4.57;1.93;;;7.20;99.90;;;;;;4962663;28;20228;-67
2023/01/04 00:11:59;;;;;;;4.67;1.67;;;7.20;99.90;;;;;;4941262;28;20709;-67
2023/01/04 00:14:27;;;;;;;6.37;1.57;;;7.20;99.90;;;;;;4952273;28;20627;-68
2023/01/04 00:16:54;;;;;;;5.13;1.83;;;7.20;99.90;;;;;;4944253;28;20803;-67
2023/01/04 00:19:20;;;;;;;3.37;1.80;;;7.20;99.90;;;;;;4941782;28;20223;-68
2023/01/04 00:21:47;;;;;;;4.53;1.97;;;7.20;99.90;;;;;;4934402;28;20235;-67
2023/01/04 00:24:15;;;;;;;3.43;1.73;;;7.10;99.90;;;;;;4953030;28;20219;-68
2023/01/04 00:26:42;;;;;;;4.40;1.73;;;7.10;99.90;;;;;;4938102;28;20247;-68
2023/01/04 00:29:12;;;;;;;4.87;1.80;;;7.10;99.90;;;;;;4959533;28;20568;-67
2023/01/04 00:31:41;;;;;;;3.37;1.47;;;7.20;99.90;;;;;;4932920;28;20435;-68
2023/01/04 00:34:09;;;;;;;6.30;1.33;;;7.10;99.90;;;;;;4954561;28;20227;-67
2023/01/04 00:36:35;;;;;;;7.20;1.40;;;7.10;99.90;;;;;;4915253;28;20971;-68
2023/01/04 00:39:10;;;;;;;6.53;1.60;;;7.10;99.90;;;;;;4942213;28;20905;-67
2023/01/04 00:41:38;;;;;;;3.50;1.43;;;7.20;99.90;;;;;;4948507;28;20596;-68
2023/01/04 00:44:06;;;;;;;6.27;1.30;;;7.10;99.90;;;;;;4962409;28;20239;-68
2023/01/04 00:46:33;;;;;;;3.37;1.57;;;7.20;99.90;;;;;;4941163;28;20238;-68
2023/01/04 00:49:02;;;;;;;9.20;1.40;;;7.10;99.90;;;;;;4965802;28;20220;-67
2023/01/04 00:51:30;;;;;;;2.63;1.20;;;7.10;99.90;;;;;;4940753;28;20227;-68
2023/01/04 00:53:57;;;;;;;4.13;1.43;;;7.10;99.90;;;;;;4937676;28;20231;-68
2023/01/04 00:56:24;;;;;;;2.57;1.40;;;7.10;99.90;;;;;;4957714;28;20246;-67
2023/01/04 00:58:54;;;;;;;7.20;1.53;;;7.00;99.90;;;;;;4945922;28;20219;-67
2023/01/04 01:01:21;;;;;;;3.63;1.60;;;7.00;99.90;;;;;;4964775;28;20303;-68
2023/01/04 01:03:52;;;;;;;4.90;1.47;;;7.00;99.90;;;;;;4949528;28;20242;-68
2023/01/04 01:06:20;;;;;;;6.53;1.40;;;7.00;99.90;;;;;;4944679;28;20235;-68
2023/01/04 01:08:47;;;;;;;4.23;1.57;;;7.00;99.90;;;;;;4937011;28;20236;-67
2023/01/04 01:11:14;;;;;;;4.40;1.53;;;7.00;99.90;;;;;;4948333;28;20238;-67
2023/01/04 01:13:40;;;;;;;3.83;1.53;;;7.10;99.90;;;;;;4951038;28;20235;-67
2023/01/04 01:16:09;;;;;;;2.43;1.03;;;7.10;99.90;;;;;;4965480;28;20223;-67
2023/01/04 01:18:38;;;;;;;3.07;1.50;;;7.10;99.90;;;;;;4959676;28;20227;-68
2023/01/04 01:21:06;;;;;;;1.80;1.17;;;7.10;99.90;;;;;;4954657;28;20224;-66
2023/01/04 01:23:34;;;;;;;3.33;1.70;;;7.10;99.90;;;;;;4928699;28;20224;-68
2023/01/04 01:26:01;;;;;;;1.90;1.33;;;7.10;99.90;;;;;;4959994;28;20243;-67
2023/01/04 01:28:29;;;;;;;4.30;1.20;;;7.10;99.90;;;;;;4933004;28;20739;-67
2023/01/04 01:30:58;;;;;;;5.17;1.27;;;7.20;99.90;;;;;;4968134;28;20716;-67
2023/01/04 01:33:25;;;;;;;3.10;1.30;;;7.20;99.90;;;;;;4955243;28;20258;-67
2023/01/04 01:35:52;;;;;;;5.97;1.20;;;7.20;99.90;;;;;;4965239;28;20223;-68
2023/01/04 01:38:18;;;;;;;3.10;1.57;;;7.20;99.90;;;;;;4947496;28;21070;-68
2023/01/04 01:40:47;;;;;;;4.53;1.40;;;7.20;99.90;;;;;;4931345;28;20239;-67
2023/01/04 01:43:18;;;;;;;1.77;1.20;;;7.20;99.90;;;;;;4946055;28;21268;-67
2023/01/04 01:45:47;;;;;;;5.57;1.50;;;7.20;99.90;;;;;;4966451;28;20227;-67
2023/01/04 01:48:18;;;;;;;5.97;1.13;;;7.20;99.90;;;;;;4959966;28;20243;-67
2023/01/04 01:50:48;;;;;;;2.40;1.20;;;7.20;99.90;;;;;;4953814;28;20317;-67
2023/01/04 01:53:15;;;;;;;1.63;1.23;;;7.30;99.90;;;;;;4942212;28;20706;-67
2023/01/04 01:55:44;;;;;;;3.83;1.13;;;7.30;99.90;;;;;;4939502;28;20384;-67
2023/01/04 01:58:16;;;;;;;8.17;1.70;;;7.30;99.90;;;;;;4957087;28;20223;-68
2023/01/04 02:00:43;;;;;;;6.63;1.60;;;7.30;99.90;;;;;;4960223;28;20231;-67
2023/01/04 02:03:16;;;;;;;5.03;1.50;;;7.30;99.90;;;;;;4962181;28;20231;-67
2023/01/04 02:05:44;;;;;;;4.17;1.80;;;7.30;99.90;;;;;;4950629;28;20536;-67
2023/01/04 02:08:12;;;;;;;3.27;1.33;;;7.30;99.90;;;;;;4950378;28;20246;-67
2023/01/04 02:10:39;;;;;;;5.90;1.30;;;7.30;99.90;;;;;;4939595;28;20238;-68
2023/01/04 02:13:10;;;;;;;3.63;1.40;;;7.40;99.90;;;;;;4952961;28;20652;-67
2023/01/04 02:15:50;;;;;;;4.17;1.27;;;7.40;99.90;;;;;;4936969;28;20238;-67
2023/01/04 02:18:24;;;;;;;1.50;1.10;;;7.40;99.90;;;;;;4960888;28;20230;-68
2023/01/04 02:20:59;;;;;;;4.10;1.53;;;7.40;99.90;;;;;;4943173;28;20573;-68
2023/01/04 02:24:01;;;;;;;4.07;1.10;;;7.40;99.90;;;;;;4966394;28;21075;-67
2023/01/04 02:26:56;;;;;;;5.20;1.30;;;7.40;99.90;;;;;;4924761;28;20232;-67
2023/01/04 02:30:10;;;;;;;1.53;1.27;;;7.50;99.90;;;;;;4963734;28;20219;-67
2023/01/04 02:32:50;;;;;;;1.57;1.10;;;7.40;99.90;;;;;;4952903;28;20223;-68
2023/01/04 02:35:24;;;;;;;5.17;1.67;;;7.40;99.90;;;;;;4959620;28;20219;-67
2023/01/04 02:37:58;;;;;;;4.63;1.40;;;7.40;99.90;;;;;;4951174;28;20227;-68
2023/01/04 02:40:33;;;;;;;3.57;1.40;;;7.50;99.90;;;;;;4948877;28;20293;-67
2023/01/04 02:45:55;;;;;;;3.37;1.50;;;7.50;99.90;;;;;;4943044;28;25386;-67
2023/01/04 02:51:26;;;;;;;4.53;1.33;;;7.50;99.90;;;;;;4961692;28;20405;-67
2023/01/04 02:53:53;;;;;;;2.80;1.67;;;7.50;99.90;;;;;;4944042;28;20343;-69
2023/01/04 02:56:34;;;;;;;4.10;1.60;;;7.50;99.90;;;;;;4950783;28;20232;-67
2023/01/04 02:59:14;;;;;;;2.50;1.50;;;7.50;99.90;;;;;;4937645;28;20321;-68
2023/01/04 03:07:52;;;;;;;5.33;1.40;;;7.50;99.90;;;;;;4853657;28;20272;-68
2023/01/04 03:10:25;;;;;;;6.50;1.70;;;7.50;99.90;;;;;;4940972;28;20223;-67
2023/01/04 03:12:56;;;;;;;4.40;1.47;;;7.50;99.90;;;;;;4910623;28;21318;-68
2023/01/04 03:15:27;;;;;;;3.27;1.57;;;7.60;99.90;;;;;;4959919;28;20302;-67
2023/01/04 03:17:58;;;;;;;2.47;1.67;;;7.60;99.90;;;;;;4938962;28;20223;-67
2023/01/04 03:20:29;;;;;;;3.53;1.23;;;7.60;99.90;;;;;;4951156;28;20558;-67
2023/01/04 03:37:13;;;;;;;3.93;1.40;;;7.70;99.90;;;;;;4907222;28;20313;-67
2023/01/04 03:48:33;;;;;;;4.43;1.53;;;7.70;99.90;;;;;;4953234;28;21017;-68
2023/01/04 03:51:13;;;;;;;3.73;1.40;;;7.70;99.90;;;;;;4941811;28;20246;-67
2023/01/04 03:53:48;;;;;;;3.40;1.50;;;7.80;99.90;;;;;;4938333;28;22108;-68
2023/01/04 03:56:17;;;;;;;4.73;1.70;;;7.80;99.90;;;;;;4941855;28;20233;-67
2023/01/04 03:58:44;;;;;;;4.43;1.93;;;7.80;99.90;;;;;;4935923;28;20231;-67
2023/01/04 04:01:12;;;;;;;3.87;1.90;;;7.80;99.90;;;;;;4929934;28;20227;-67
2023/01/04 04:09:09;;;;;;;3.83;1.90;;;7.80;99.90;;;;;;4945468;28;20299;-68
2023/01/04 04:11:36;;;;;;;4.20;1.97;;;7.80;99.90;;;;;;4961590;28;21366;-68
2023/01/04 04:14:03;;;;;;;3.13;1.80;;;7.80;99.90;;;;;;4939854;28;20230;-68
2023/01/04 04:16:30;;;;;;;2.20;1.70;;;7.90;99.90;;;;;;4907344;28;20235;-68
2023/01/04 04:18:57;;;;;;;5.60;1.97;;;7.90;99.90;;;;;;4936443;28;20224;-68
2023/01/04 04:21:24;;;;;;;4.23;1.50;;;7.90;99.90;;;;;;4939613;28;20238;-68
2023/01/04 04:23:50;;;;;;;1.70;1.47;;;7.90;99.90;;;;;;4940289;28;20234;-68
2023/01/04 04:26:19;;;;;;;3.83;1.50;;;7.90;99.90;;;;;;4950268;28;20313;-68
2023/01/04 04:28:45;;;;;;;3.17;1.90;;;7.90;99.90;;;;;;4954168;28;20750;-69
2023/01/04 04:31:12;;;;;;;1.67;1.40;;;8.00;99.90;;;;;;4908652;28;20222;-67
2023/01/04 04:33:39;;;;;;;2.93;1.50;;;8.00;99.90;;;;;;4933662;28;20253;-68
2023/01/04 04:36:07;;;;;;;6.17;1.90;;;8.00;99.90;;;;;;4954339;28;20230;-68
2023/01/04 04:38:34;;;;;;;1.20;1.10;;;8.00;99.90;;;;;;4954583;28;20593;-68
2023/01/04 04:43:52;;;;;;;3.90;1.63;;;8.00;99.90;;;;;;4956991;28;20307;-68
2023/01/04 04:46:19;;;;;;;1.60;1.50;;;8.10;99.90;;;;;;4919807;28;20232;-69
2023/01/04 04:48:46;;;;;;;1.63;1.30;;;8.10;99.90;;;;;;4941256;28;20774;-68
2023/01/04 04:51:13;;;;;;;1.87;1.53;;;8.10;99.90;;;;;;4943946;28;21138;-68
2023/01/04 04:53:40;;;;;;;1.50;1.40;;;8.10;99.90;;;;;;4949009;28;20219;-68
2023/01/04 04:56:07;;;;;;;2.43;1.40;;;8.10;99.90;;;;;;4927438;28;20981;-68
2023/01/04 04:58:35;;;;;;;3.00;1.50;;;8.10;99.90;;;;;;4948273;28;20621;-68
2023/01/04 05:01:03;;;;;;;1.50;1.30;;;8.10;99.90;;;;;;4929858;28;20600;-68
2023/01/04 05:03:30;;;;;;;3.27;1.70;;;8.20;99.90;;;;;;4933096;28;20235;-68
2023/01/04 05:05:56;;;;;;;2.17;1.97;;;8.20;99.90;;;;;;4938555;28;20242;-68
2023/01/04 05:08:23;;;;;;;2.13;1.50;;;9.10;99.90;;;;;;4949138;28;20553;-68
2023/01/04 05:10:50;;;;;;;1.70;1.60;;;8.30;99.90;;;;;;4933860;28;20250;-68
2023/01/04 05:13:16;;;;;;;2.00;1.80;;;8.20;99.90;;;;;;4954867;28;20263;-68
2023/01/04 05:15:45;;;;;;;1.57;1.47;;;8.30;99.90;;;;;;4934971;28;21912;-68
2023/01/04 05:18:15;;;;;;;1.73;1.63;;;8.40;99.90;;;;;;4931279;28;20219;-68
2023/01/04 05:20:42;;;;;;;3.50;1.90;;;8.30;99.90;;;;;;4946928;28;20227;-68
2023/01/04 05:23:12;;;;;;;1.67;1.57;;;8.30;99.90;;;;;;4956085;28;20222;-68
2023/01/04 05:25:38;;;;;;;1.87;1.63;;;8.40;99.90;;;;;;4955650;28;20227;-68
2023/01/04 05:28:06;;;;;;;1.83;1.70;;;8.40;99.90;;;;;;4945258;28;20239;-68
2023/01/04 05:30:50;;;;;;;1.60;1.50;;;8.50;99.90;;;;;;4940712;28;20224;-68
2023/01/04 05:33:20;;;;;;;2.43;1.80;;;8.50;99.90;;;;;;4918676;28;20739;-68
2023/01/04 05:35:47;;;;;;;2.27;1.63;;;8.50;99.90;;;;;;4941033;28;20716;-68
2023/01/04 05:38:13;;;;;;;2.50;1.80;;;8.50;99.90;;;;;;4950603;28;20879;-68
2023/01/04 05:40:41;;;;;;;3.23;2.27;;;8.50;99.90;;;;;;4956692;28;20223;-68
2023/01/04 05:43:07;;;;;;;2.50;2.30;;;8.60;99.90;;;;;;4944286;28;20618;-68
2023/01/04 05:45:35;;;;;;;2.23;2.03;;;8.50;99.90;;;;;;4950504;28;20390;-68
2023/01/04 05:48:02;;;;;;;2.30;1.90;;;8.60;99.90;;;;;;4938929;28;20238;-68
2023/01/04 05:50:30;;;;;;;2.37;2.00;;;8.70;99.90;;;;;;4967643;28;20248;-69
2023/01/04 05:52:57;;;;;;;1.90;1.80;;;8.70;99.90;;;;;;5026062;28;20221;-68
2023/01/04 05:55:24;;;;;;;2.47;2.27;;;8.80;99.90;;;;;;5032258;28;20319;-68
2023/01/04 05:57:51;;;;;;;4.30;3.20;;;8.80;99.90;;;;;;5019810;28;20311;-68
2023/01/04 06:00:18;;;;;;;3.83;3.17;;;8.80;99.90;;;;;;5034178;28;20221;-68
2023/01/04 06:02:45;;;;;;;3.97;3.30;;;8.80;99.90;;;;;;5026491;28;22733;-69
2023/01/04 06:05:12;;;;;;;3.87;3.47;;;8.90;99.90;;;;;;5004617;28;20617;-67
2023/01/04 06:07:41;;;;;;;5.17;3.70;;;9.00;99.90;;;;;;4998565;28;20431;-69
2023/01/04 06:10:10;;;;;;;4.27;3.87;;;9.00;99.90;;;;;;5023208;28;20236;-68
2023/01/04 06:12:37;;;;;;;4.83;3.50;;;9.10;99.90;;;;;;5015879;28;20591;-68
2023/01/04 06:15:05;;;;;;;4.40;3.70;;;9.10;99.90;;;;;;5033248;28;20227;-69
2023/01/04 06:17:32;;;;;;;5.70;4.20;;;9.10;99.90;;;;;;5017051;28;20818;-68
2023/01/04 06:19:59;;;;;;;4.60;4.13;;;9.20;99.90;;;;;;5008235;28;20762;-69
2023/01/04 06:22:27;;;;;;;4.40;3.57;;;9.20;99.90;;;;;;5015558;28;20693;-68
2023/01/04 06:24:55;;;;;;;3.80;3.47;;;9.30;99.90;;;;;;5033890;28;20220;-68
2023/01/04 06:27:22;;;;;;;2.67;2.40;;;9.30;99.90;;;;;;5019860;28;20535;-68
2023/01/04 06:29:48;;;;;;;2.30;2.10;;;9.40;99.90;;;;;;5027090;28;20251;-68
2023/01/04 06:32:15;;;;;;;2.33;2.13;;;9.40;99.90;;;;;;5029016;28;20251;-68
2023/01/04 06:34:42;;;;;;;1.80;1.70;;;9.40;99.90;;;;;;4992131;28;21238;-68
2023/01/04 06:37:09;;;;;;;2.00;1.80;;;9.40;99.90;;;;;;5019726;28;20302;-68
2023/01/04 06:39:39;;;;;;;1.87;1.73;;;9.40;99.90;;;;;;5016771;28;20830;-68
2023/01/04 06:42:43;;;;;;;3.03;1.70;;;9.50;99.90;;;;;;5033875;28;20220;-68
2023/01/04 06:44:55;;;;;;;1.60;1.50;;;9.50;99.90;;;;;;5027436;28;20273;-68
2023/01/04 06:47:22;;;;;;;1.67;1.57;;;9.50;99.90;;;;;;5032283;28;20494;-69
2023/01/04 06:49:49;;;;;;;1.97;1.77;;;9.50;99.90;;;;;;4963379;28;21506;-68
2023/01/04 06:52:16;;;;;;;1.88;1.70;;;9.60;99.90;;;;;;4937702;28;20747;-68
2023/01/04 06:54:42;;;;;;;1.45;1.35;;;9.50;99.90;;;;;;4944059;28;20258;-68
2023/01/04 06:57:11;;;;;;;3.28;1.70;;;9.60;99.90;;;;;;4947792;28;20227;-68
2023/01/04 06:59:37;;;;;;;1.47;1.37;;;9.70;99.90;;;;;;4938911;28;20901;-68
2023/01/04 07:02:04;;;;;;;1.87;1.33;;;9.70;99.90;;;;;;4945391;28;20348;-68
2023/01/04 07:04:31;;;;;;;1.52;1.13;;;9.70;99.90;;;;;;4947196;28;20815;-68
2023/01/04 07:06:58;;;;;;;2.70;1.50;;;9.70;99.90;;;;;;4904372;28;20794;-68
2023/01/04 07:09:25;;;;;;;3.15;1.45;;;9.70;99.90;;;;;;4939350;28;20266;-68
2023/01/04 07:11:51;;;;;;;2.35;1.50;;;9.70;99.90;;;;;;4955783;28;20230;-68
2023/01/04 07:14:20;;;;;;;1.63;1.52;;;9.70;99.90;;;;;;4921763;28;20258;-68
2023/01/04 07:16:47;;;;;;;2.03;1.73;;;9.70;99.90;;;;;;4949227;28;20233;-68
2023/01/04 07:19:14;;;;;;;2.50;1.85;;;9.70;99.90;;;;;;4936314;28;20211;-68
2023/01/04 07:21:42;;;;;;;1.63;1.45;;;9.80;99.90;;;;;;4922385;28;20231;-68
2023/01/04 07:24:09;;;;;;;1.40;1.30;;;9.80;99.90;;;;;;4933521;28;20323;-69
2023/01/04 07:26:35;;;;;;;1.85;1.20;;;9.90;99.90;;;;;;4949441;28;20731;-69
2023/01/04 07:29:14;;;;;;;1.85;1.30;;;9.80;99.90;;;;;;4936901;28;20262;-68
2023/01/04 07:31:44;;;;;;;2.90;1.30;;;9.90;99.90;;;;;;4961406;28;20215;-69
2023/01/04 07:34:11;;;;;;;1.77;1.25;;;9.90;99.90;;;;;;4935964;28;20667;-69
2023/01/04 07:36:38;;;;;;;1.40;1.20;;;9.90;99.90;;;;;;4924596;28;20233;-68
2023/01/04 07:39:06;;;;;;;1.40;1.20;;;10.00;99.90;;;;;;4940604;28;20224;-69
2023/01/04 07:41:33;;;;;;;1.92;1.20;;;10.00;99.90;;;;;;4947102;28;21135;-69
2023/01/04 07:44:00;;;;;;;1.15;1.08;;;10.00;99.90;;;;;;4949994;28;21664;-68
2023/01/04 07:46:27;;;;;;;2.05;1.52;;;10.10;99.90;;;;;;4942533;28;20363;-68
2023/01/04 07:48:55;;;;;;;1.42;1.33;;;10.10;99.90;;;;;;4940413;28;20325;-68
2023/01/04 07:51:22;;;;;;;2.38;1.45;;;10.10;99.90;;;;;;4939771;28;20889;-69
2023/01/04 07:53:49;;;;;;;1.38;1.27;;;10.10;99.90;;;;;;4925701;28;20242;-69
2023/01/04 07:56:16;;;;;;;1.60;1.50;;;10.10;99.90;;;;;;4938813;28;20236;-69
2023/01/04 07:58:43;;;;;;;3.42;1.70;;;10.20;99.90;;;;;;4947264;28;20235;-69
2023/01/04 08:01:12;;;;;;;2.20;1.95;;;10.20;99.90;;;;;;4933365;28;20223;-69
2023/01/04 08:03:39;;;;;;;4.07;1.60;;;10.10;99.90;;;;;;4960615;28;20720;-68
2023/01/04 08:06:09;;;;;;;1.85;1.73;;;10.20;99.90;;;;;;4947447;28;20682;-69
2023/01/04 08:08:36;;;;;;;2.13;1.92;;;10.20;99.90;;;;;;4903623;28;21352;-68
2023/01/04 08:11:03;;;;;;;3.78;1.92;;;10.20;99.90;;;;;;4907538;28;20211;-69
2023/01/04 08:13:30;;;;;;;2.25;1.67;;;10.20;99.90;;;;;;4961198;28;20723;-68
2023/01/04 08:15:57;;;;;;;2.08;1.90;;;10.20;99.90;;;;;;4944581;28;20211;-69
2023/01/04 08:18:23;;;;;;;1.40;1.30;;;10.20;99.90;;;;;;4955340;28;20214;-68
2023/01/04 08:20:51;;;;;;;1.65;1.55;;;10.20;99.90;;;;;;4957386;28;20223;-68
2023/01/04 08:23:19;;;;;;;2.47;1.45;;;10.20;99.90;;;;;;4961042;28;20215;-68
2023/01/04 08:25:45;;;;;;;1.25;1.15;;;10.20;99.90;;;;;;4936463;28;20207;-68
2023/01/04 08:28:12;;;;;;;1.00;0.90;;;10.20;99.90;;;;;;4948778;28;20465;-69
2023/01/04 08:30:39;;;;;;;1.10;1.00;;;10.30;99.90;;;;;;4955604;28;20208;-69
2023/01/04 08:33:14;;;;;;;1.20;1.10;;;10.30;99.90;;;;;;4949529;28;20206;-69
2023/01/04 08:35:40;;;;;;;1.00;0.93;;;10.40;99.90;;;;;;4961131;28;20883;-69
2023/01/04 08:38:07;;;;;;;1.05;0.95;;;10.30;99.90;;;;;;4940678;28;20840;-69
2023/01/04 08:40:35;;;;;;;1.40;1.30;;;10.40;99.90;;;;;;4926125;28;20212;-69
2023/01/04 08:43:02;;;;;;;1.00;0.90;;;10.30;99.90;;;;;;4931874;28;20613;-69
2023/01/04 08:45:29;;;;;;;1.17;1.10;;;10.30;99.90;;;;;;4952656;28;20247;-69
2023/01/04 08:47:56;;;;;;;1.50;1.13;;;10.40;99.90;;;;;;4938232;28;20227;-69
2023/01/04 08:50:23;;;;;;;1.40;1.27;;;10.40;99.90;;;;;;4945169;28;20738;-69
2023/01/04 08:52:49;;;;;;;0.85;0.85;;;10.50;99.90;;;;;;4964958;28;20202;-69
2023/01/04 08:55:16;;;;;;;0.85;0.85;;;10.40;99.90;;;;;;4962976;28;20691;-69
2023/01/04 08:57:45;;;;;;;0.88;0.88;;;10.40;99.90;;;;;;4938740;28;20222;-69
2023/01/04 09:00:13;;;;;;;1.23;1.13;;;10.50;99.90;;;;;;4954876;28;20228;-69
2023/01/04 09:02:40;;;;;;;1.40;1.30;;;10.50;99.90;;;;;;4968728;28;20223;-69
2023/01/04 09:05:07;;;;;;;1.30;1.20;;;10.50;99.90;;;;;;4961639;28;20227;-68
2023/01/04 09:07:34;;;;;;;1.25;1.15;;;10.60;99.90;;;;;;4969326;28;20202;-69
2023/01/04 09:10:01;;;;;;;1.20;1.10;;;10.50;99.90;;;;;;4955763;28;20234;-68
2023/01/04 09:12:28;;;;;;;1.17;1.10;;;10.50;99.90;;;;;;4949042;28;20737;-69
2023/01/04 09:14:56;;;;;;;3.97;0.95;;;10.60;99.90;;;;;;4972711;28;20199;-69
2023/01/04 09:17:24;;;;;;;1.00;0.90;;;10.50;99.90;;;;;;4960623;28;20200;-69
2023/01/04 09:19:51;;;;;;;1.25;1.13;;;10.50;99.90;;;;;;4949824;28;20218;-68
2023/01/04 09:22:17;;;;;;;0.90;0.90;;;10.60;99.90;;;;;;4976954;28;20199;-69
2023/01/04 09:24:44;;;;;;;0.88;0.88;;;10.60;99.90;;;;;;4971354;28;20212;-68
2023/01/04 09:27:12;;;;;;;1.35;1.00;;;11.10;99.90;;;;;;4943321;28;20203;-69
2023/01/04 09:29:40;;;;;;;0.80;0.80;;;10.50;99.90;;;;;;4954635;28;20235;-69
2023/01/04 09:32:08;;;;;;;0.73;0.70;;;10.60;99.90;;;;;;4961554;28;20289;-68
2023/01/04 09:34:35;;;;;;;0.80;0.80;;;10.60;99.90;;;;;;4957459;28;20206;-69
2023/01/04 09:37:01;;;;;;;0.80;0.80;;;10.60;99.90;;;;;;4974178;28;20286;-69
2023/01/04 09:39:29;;;;;;;0.52;0.52;;;10.70;99.90;;;;;;4977160;28;21049;-69
2023/01/04 09:41:57;;;;;;;0.60;0.60;;;10.70;99.90;;;;;;4951002;28;20225;-69
2023/01/04 09:44:35;;;;;;;1.83;0.90;;;10.70;99.90;;;;;;4933669;28;23976;-70
2023/01/04 09:47:07;;;;;;;0.70;0.70;;;10.60;99.90;;;;;;4964132;28;20227;-69
2023/01/04 09:49:41;;;;;;;0.80;0.80;;;10.80;99.90;;;;;;4945000;28;22540;-69
2023/01/04 09:52:16;;;;;;;1.08;1.00;;;10.80;99.90;;;;;;4956757;28;20243;-69
2023/01/04 09:54:46;;;;;;;1.80;0.90;;;10.90;99.90;;;;;;4958453;28;20209;-69
2023/01/04 09:57:22;;;;;;;0.77;0.77;;;10.90;99.90;;;;;;4949061;28;20334;-69
2023/01/04 09:59:55;;;;;;;0.70;0.70;;;10.90;99.90;;;;;;4934341;28;20333;-69
2023/01/04 10:02:29;;;;;;;0.70;0.70;;;10.90;99.90;;;;;;4951547;28;20230;-69
2023/01/04 10:05:00;;;;;;;1.35;1.10;;;10.90;99.90;;;;;;4953194;28;20313;-69
2023/01/04 10:07:29;;;;;;;0.75;0.75;;;10.90;99.90;;;;;;4949409;28;20224;-69
2023/01/04 10:09:57;;;;;;;1.40;0.80;;;10.90;99.90;;;;;;4964145;28;20227;-69
2023/01/04 10:12:37;;;;;;;1.20;1.00;;;11.00;99.90;;;;;;4962431;28;20207;-69
2023/01/04 10:15:19;;;;;;;0.80;0.80;;;11.00;99.90;;;;;;4968314;28;20227;-69
2023/01/04 10:18:12;;;;;;;0.98;0.82;;;11.00;99.90;;;;;;4969265;28;20655;-69
2023/01/04 10:20:53;;;;;;;0.70;0.70;;;11.10;99.90;;;;;;4949619;28;20911;-68
2023/01/04 10:23:32;;;;;;;0.93;0.88;;;11.00;99.90;;;;;;4966171;28;20199;-69
2023/01/04 10:26:07;;;;;;;1.15;1.05;;;11.00;99.90;;;;;;4960963;28;20219;-69
2023/01/04 10:28:58;;;;;;;0.93;0.90;;;11.10;99.90;;;;;;4946964;28;20230;-68
2023/01/04 10:31:31;;;;;;;1.30;1.20;;;11.10;99.90;;;;;;4927073;28;22005;-69
2023/01/04 10:34:06;;;;;;;1.05;0.95;;;11.10;99.90;;;;;;4956374;28;20223;-69
2023/01/04 10:36:35;;;;;;;1.30;1.20;;;11.10;99.90;;;;;;4950925;28;20254;-68
2023/01/04 10:39:04;;;;;;;2.20;1.17;;;11.20;99.90;;;;;;4958618;28;20231;-68
2023/01/04 10:41:35;;;;;;;1.17;1.08;;;11.10;99.90;;;;;;4960247;28;20235;-69
2023/01/04 10:44:10;;;;;;;1.02;1.00;;;11.10;99.90;;;;;;4954827;28;20664;-68
2023/01/04 10:46:44;;;;;;;1.67;1.00;;;11.10;99.90;;;;;;4939527;28;20679;-70
2023/01/04 10:49:16;;;;;;;1.48;0.80;;;11.10;99.90;;;;;;4972933;28;20243;-70
2023/01/04 10:51:52;;;;;;;1.80;1.20;;;11.10;99.90;;;;;;5032208;28;20248;-69
2023/01/04 10:54:26;;;;;;;0.80;0.80;;;11.20;99.90;;;;;;5040625;28;20289;-69
2023/01/04 10:57:00;;;;;;;0.95;0.95;;;11.20;99.90;;;;;;5047629;28;20361;-69
2023/01/04 10:59:34;;;;;;;1.25;1.15;;;11.20;99.90;;;;;;5030006;28;21040;-69
2023/01/04 11:02:06;;;;;;;0.90;0.90;;;11.30;99.90;;;;;;5027197;28;20205;-69
2023/01/04 11:04:37;;;;;;;0.90;0.90;;;11.30;99.90;;;;;;5023836;28;20973;-69
2023/01/04 11:07:12;;;;;;;2.45;1.20;;;11.30;99.90;;;;;;5036335;28;20203;-69
2023/01/04 11:09:47;;;;;;;0.77;0.77;;;11.20;99.90;;;;;;5042310;28;20238;-69
2023/01/04 11:12:17;;;;;;;0.90;0.90;;;11.30;99.90;;;;;;5041464;28;20196;-69
2023/01/04 11:14:44;;;;;;;1.45;1.10;;;11.30;99.90;;;;;;5036582;28;20215;-68
2023/01/04 11:17:12;;;;;;;0.90;0.90;;;11.30;99.90;;;;;;5033626;28;20197;-69
2023/01/04 11:19:40;;;;;;;1.40;1.00;;;11.30;99.90;;;;;;5035964;28;21066;-69
2023/01/04 11:22:15;;;;;;;0.90;0.90;;;11.30;99.90;;;;;;5034702;28;20224;-69
2023/01/04 11:24:44;;;;;;;0.70;0.70;;;11.30;99.90;;;;;;5029773;28;20196;-69
2023/01/04 11:27:15;;;;;;;0.75;0.60;;;11.40;99.90;;;;;;5036144;28;20208;-69
2023/01/04 11:29:49;;;;;;;1.38;0.98;;;11.40;99.90;;;;;;5017603;28;20232;-69
2023/01/04 11:32:21;;;;;;;3.72;3.00;;;11.40;99.90;;;;;;5034991;28;21167;-67
2023/01/04 11:34:50;;;;;;;2.78;2.28;;;11.40;99.90;;;;;;5003535;28;20201;-70
2023/01/04 11:37:32;;;;;;;1.50;1.30;;;11.40;99.90;;;;;;5028785;28;24109;-69
2023/01/04 11:40:17;;;;;;;1.00;1.00;;;11.40;99.90;;;;;;5029700;28;20209;-69
2023/01/04 11:42:45;;;;;;;1.13;1.02;;;11.40;99.90;;;;;;5037437;28;20204;-69
2023/01/04 11:45:17;;;;;;;1.25;1.10;;;11.50;99.90;;;;;;5020570;28;20231;-69
2023/01/04 11:47:49;;;;;;;0.80;0.80;;;11.50;99.90;;;;;;5032950;28;20224;-69
2023/01/04 11:50:35;;;;;;;1.20;1.10;;;11.50;99.90;;;;;;4956955;28;20235;-69
2023/01/04 11:53:21;;;;;;;2.05;0.93;;;11.40;99.90;;;;;;4962669;28;20202;-69
2023/01/04 11:55:48;;;;;;;1.02;0.93;;;11.50;99.90;;;;;;4954676;28;20210;-69
2023/01/04 11:58:16;;;;;;;0.70;0.70;;;11.50;99.90;;;;;;4968868;28;20208;-69
2023/01/04 12:00:51;;;;;;;1.58;1.38;;;11.40;99.90;;;;;;4956381;28;20219;-69
2023/01/04 12:03:25;;;;;;;1.15;1.00;;;11.50;99.90;;;;;;4980141;28;20199;-69
2023/01/04 12:05:52;;;;;;;0.77;0.77;;;11.50;99.90;;;;;;4941101;28;20211;-69
2023/01/04 12:08:29;;;;;;;0.63;0.63;;;11.50;99.90;;;;;;4952133;28;20231;-69
2023/01/04 12:10:56;;;;;;;0.70;0.70;;;11.60;99.90;;;;;;4957907;28;20250;-68
2023/01/04 12:13:23;;;;;;;1.02;1.02;;;11.60;99.90;;;;;;4968488;28;20223;-69
2023/01/04 12:16:00;;;;;;;2.20;0.95;;;11.60;99.90;;;;;;4960047;28;21599;-69
2023/01/04 12:18:30;;;;;;;1.02;0.90;;;11.60;99.90;;;;;;4975386;28;20218;-69
2023/01/04 12:20:57;;;;;;;1.42;1.33;;;11.60;99.90;;;;;;4944837;28;20222;-69
2023/01/04 12:23:25;;;;;;;1.98;1.15;;;11.60;99.90;;;;;;4958225;28;20208;-69
2023/01/04 12:25:53;;;;;;;2.03;0.88;;;11.60;99.90;;;;;;4944506;28;20208;-69
2023/01/04 12:28:35;;;;;;;3.72;1.20;;;11.60;99.90;;;;;;4974714;28;20208;-69
2023/01/04 12:31:30;;;;;;;1.10;1.00;;;11.60;99.90;;;;;;4957562;28;21537;-69
2023/01/04 12:33:58;;;;;;;1.42;1.17;;;11.70;99.90;;;;;;4970148;28;20192;-69
2023/01/04 12:36:54;;;;;;;1.92;1.20;;;11.60;99.90;;;;;;4949466;28;20216;-69
2023/01/04 12:39:40;;;;;;;1.58;1.20;;;11.60;99.90;;;;;;4954826;28;20223;-69
2023/01/04 12:42:20;;;;;;;7.40;5.18;;;11.60;99.90;;;;;;4939614;28;20354;-69
2023/01/04 12:45:21;;;;;;;3.00;1.58;;;11.60;99.90;;;;;;4965925;28;20258;-69
2023/01/04 12:51:20;;;;;;;1.20;1.10;;;11.60;99.90;;;;;;4962259;28;20251;-69
2023/01/04 12:53:56;;;;;;;2.65;1.27;;;11.60;99.90;;;;;;4923099;28;20571;-69
2023/01/04 12:57:02;;;;;;;1.05;0.90;;;11.60;99.90;;;;;;4945546;28;20772;-70
2023/01/04 12:59:35;;;;;;;2.70;1.23;;;11.70;99.90;;;;;;4963191;28;20856;-70
2023/01/04 13:02:21;;;;;;;3.55;0.80;;;11.60;99.90;;;;;;4967659;28;20200;-70
2023/01/04 13:04:49;;;;;;;7.38;1.30;;;11.50;99.90;;;;;;4949759;28;20328;-70
2023/01/04 13:07:23;;;;;;;3.50;1.25;;;11.30;99.90;;;;;;4969533;28;20338;-70
2023/01/04 13:09:57;;;;;;;3.50;0.93;;;11.20;99.90;;;;;;4923957;28;20234;-70
2023/01/04 13:12:50;;;;;;;6.60;1.42;;;11.20;99.90;;;;;;4956894;28;20314;-69
2023/01/04 13:15:24;;;;;;;4.82;1.17;;;11.10;99.90;;;;;;4971814;28;20726;-70
2023/01/04 13:17:52;;;;;;;2.05;0.98;;;11.10;99.90;;;;;;4938443;28;20255;-70
2023/01/04 13:20:22;;;;;;;3.55;1.60;;;11.10;99.90;;;;;;4964793;28;20250;-70
2023/01/04 13:22:53;;;;;;;5.25;1.80;;;11.10;99.90;;;;;;4958953;28;22355;-70
2023/01/04 13:25:21;;;;;;;2.60;1.48;;;11.20;99.90;;;;;;4934247;28;20814;-70
2023/01/04 13:28:00;;;;;;;1.75;1.25;;;11.40;99.90;;;;;;4947987;28;21209;-70
2023/01/04 13:30:35;;;;;;;3.30;1.27;;;11.50;99.90;;;;;;4958207;28;20827;-70
2023/01/04 13:33:10;;;;;;;3.03;1.08;;;11.60;99.90;;;;;;4950144;28;20227;-70
2023/01/04 13:35:37;;;;;;;2.17;0.80;;;11.60;99.90;;;;;;4940931;28;20223;-70
2023/01/04 13:38:11;;;;;;;4.63;1.17;;;11.60;99.90;;;;;;4958043;28;20785;-70
2023/01/04 13:40:44;;;;;;;3.58;1.50;;;11.70;99.90;;;;;;4916063;28;20554;-70
2023/01/04 13:43:46;;;;;;;8.25;1.48;;;11.80;99.90;;;;;;4947917;28;20347;-70
2023/01/04 13:46:18;;;;;;;2.38;1.25;;;11.70;99.90;;;;;;4934849;28;20203;-70
2023/01/04 13:48:47;;;;;;;4.57;1.30;;;11.70;99.90;;;;;;4939667;28;20587;-70
2023/01/04 13:51:17;;;;;;;4.18;1.30;;;11.70;99.90;;;;;;4949404;28;20258;-69
2023/01/04 13:53:54;;;;;;;6.75;1.42;;;11.70;99.90;;;;;;4942519;28;20373;-71
2023/01/04 13:56:23;;;;;;;4.68;1.40;;;11.80;99.90;;;;;;4937968;28;20234;-69
2023/01/04 13:58:51;;;;;;;4.85;1.40;;;11.70;99.90;;;;;;4934158;28;20753;-69